createdAt,value
2022-12-18T00:22:31.358Z,87.29
2022-12-18T00:52:34.166Z,87.45
2022-12-18T01:22:37.782Z,87.76
2022-12-18T01:52:40.818Z,87.58
2022-12-18T02:22:44.435Z,87.83
2022-12-18T02:52:47.242Z,88.23
2022-12-18T03:22:51.110Z,88.01
2022-12-18T03:52:53.911Z,89.33
2022-12-18T04:22:58.044Z,89.29
2022-12-18T04:53:00.811Z,89.21
2022-12-18T05:23:04.084Z,89.59
2022-12-18T05:53:07.309Z,89.76
2022-12-18T06:23:10.947Z,89.35
2022-12-18T06:53:13.683Z,90.02
2022-12-18T07:23:17.670Z,90.10
2022-12-18T07:53:20.429Z,90.91
2022-12-18T08:23:28.619Z,90.55
2022-12-18T08:53:35.641Z,90.17
2022-12-18T09:23:39.873Z,90.21
2022-12-18T09:53:42.680Z,90.12
2022-12-18T10:23:48.390Z,89.94
2022-12-18T10:53:51.662Z,89.33
2022-12-18T11:23:54.795Z,89.40
2022-12-18T11:53:57.726Z,89.15
2022-12-18T12:24:01.758Z,88.86
2022-12-18T12:54:05.095Z,88.60
2022-12-18T13:24:09.872Z,88.22
2022-12-18T13:54:12.673Z,87.90
2022-12-18T14:24:17.882Z,88.16
2022-12-18T14:54:22.479Z,88.18
2022-12-18T15:24:26.987Z,88.17
2022-12-18T15:54:29.791Z,88.21
2022-12-18T16:24:33.679Z,88.03
2022-12-18T16:54:36.544Z,88.58
2022-12-18T17:24:40.205Z,87.81
2022-12-18T17:54:43.145Z,87.64
2022-12-18T18:24:47.274Z,87.68
2022-12-18T18:55:11.462Z,87.93
2022-12-18T19:25:13.710Z,88.07
2022-12-18T19:55:16.973Z,87.55
2022-12-18T20:25:20.738Z,87.45
2022-12-18T20:55:23.638Z,87.30
2022-12-18T21:25:27.288Z,87.63
2022-12-18T21:55:30.212Z,87.70
2022-12-18T22:25:33.821Z,88.41
2022-12-18T22:55:38.013Z,88.27
2022-12-18T23:25:41.592Z,88.01
2022-12-18T23:55:44.408Z,87.64
